Time;durP1;ratioP1;P1;durP2;ratioP2;P2;SDS_P1;SDS_P2;PMS_P1;PMS_P2;Temp;Humidity;BMP_temperature;BMP_pressure;BME280_temperature;BME280_humidity;BME280_pressure;Samples;Min_cycle;Max_cycle;Signal;HPM_P1;HPM_P2
2023/01/26 00:01:47;;;;;;;22.52;20.25;;;-0.70;99.90;;;;;;5101370;28;20023;-79
2023/01/26 00:04:13;;;;;;;22.65;20.85;;;-0.80;99.90;;;;;;5078503;28;20028;-78
2023/01/26 00:06:39;;;;;;;21.15;19.70;;;-0.90;99.90;;;;;;5101312;28;20028;-78
2023/01/26 00:09:11;;;;;;;19.20;17.73;;;-0.90;99.90;;;;;;5097310;28;20058;-79
2023/01/26 00:11:36;;;;;;;20.85;19.25;;;-0.90;99.90;;;;;;5103644;28;20039;-78
2023/01/26 00:14:02;;;;;;;21.00;19.00;;;-0.70;99.90;;;;;;5096146;28;20028;-78
2023/01/26 00:16:28;;;;;;;18.00;16.67;;;-0.90;99.90;;;;;;5099745;28;20066;-78
2023/01/26 00:18:54;;;;;;;19.38;17.55;;;-0.70;99.90;;;;;;5100221;28;20032;-78
2023/01/26 00:21:22;;;;;;;18.83;17.02;;;-0.70;99.90;;;;;;5097898;28;20097;-78
2023/01/26 00:23:48;;;;;;;18.85;17.55;;;-0.80;99.90;;;;;;5097371;28;20031;-79
2023/01/26 00:26:17;;;;;;;19.17;17.58;;;-0.80;99.90;;;;;;5077011;28;20036;-78
2023/01/26 00:28:43;;;;;;;20.17;18.27;;;-0.70;99.90;;;;;;5101641;28;20031;-78
2023/01/26 00:31:17;;;;;;;19.67;17.63;;;-0.60;99.90;;;;;;5099520;28;20478;-78
2023/01/26 00:33:43;;;;;;;17.90;16.42;;;-0.70;99.90;;;;;;5100011;28;20028;-78
2023/01/26 00:36:10;;;;;;;18.10;16.42;;;-0.60;99.90;;;;;;5095713;28;20035;-78
2023/01/26 00:38:35;;;;;;;20.13;18.55;;;-0.70;99.90;;;;;;5098935;28;20078;-78
2023/01/26 00:41:01;;;;;;;22.40;20.50;;;-0.60;99.90;;;;;;5103399;28;20030;-78
2023/01/26 00:43:27;;;;;;;20.73;19.08;;;-0.80;99.90;;;;;;5095671;28;20036;-78
2023/01/26 00:45:53;;;;;;;19.67;17.92;;;-0.80;99.90;;;;;;5104138;28;20400;-78
2023/01/26 00:48:19;;;;;;;32.28;30.40;;;-0.90;99.90;;;;;;5097320;28;20040;-78
2023/01/26 00:50:44;;;;;;;17.50;16.05;;;-0.90;99.90;;;;;;5080641;28;20031;-78
2023/01/26 00:53:10;;;;;;;74.93;17.45;;;-0.90;99.90;;;;;;5096718;28;20093;-78
2023/01/26 00:55:36;;;;;;;18.02;16.58;;;-0.90;99.90;;;;;;5071995;28;20028;-78
2023/01/26 00:58:06;;;;;;;16.33;15.13;;;-1.00;99.90;;;;;;5103747;28;20035;-78
2023/01/26 01:00:34;;;;;;;15.98;14.63;;;-1.10;99.90;;;;;;5097223;28;20028;-78
2023/01/26 01:03:00;;;;;;;18.02;16.35;;;-1.00;99.90;;;;;;5081986;28;20037;-80
2023/01/26 01:05:27;;;;;;;23.05;21.08;;;-1.10;99.90;;;;;;5091335;28;20028;-77
2023/01/26 01:07:53;;;;;;;27.33;25.20;;;-1.00;99.90;;;;;;5099049;28;20454;-77
2023/01/26 01:10:19;;;;;;;25.40;23.00;;;-0.90;99.90;;;;;;5100973;28;20066;-80
2023/01/26 01:12:45;;;;;;;25.42;23.73;;;-0.70;99.90;;;;;;5092842;28;20028;-80
2023/01/26 01:15:11;;;;;;;34.10;32.20;;;-0.80;99.90;;;;;;5099324;28;20082;-79
2023/01/26 01:17:37;;;;;;;21.98;20.40;;;-0.80;99.90;;;;;;5100431;28;20031;-79
2023/01/26 01:20:04;;;;;;;29.02;27.25;;;-0.80;99.90;;;;;;5099390;28;20048;-80
2023/01/26 01:22:31;;;;;;;19.48;17.95;;;-0.70;99.90;;;;;;5097439;28;20031;-80
2023/01/26 01:24:56;;;;;;;16.83;15.52;;;-0.90;99.90;;;;;;5079353;28;20122;-80
2023/01/26 01:27:22;;;;;;;17.40;16.20;;;-1.00;99.90;;;;;;5085060;28;20110;-80
2023/01/26 01:29:52;;;;;;;17.77;16.35;;;-1.00;99.90;;;;;;5099802;28;20036;-79
2023/01/26 01:32:18;;;;;;;21.92;20.17;;;-1.00;99.90;;;;;;5102980;28;20688;-80
2023/01/26 01:34:47;;;;;;;25.02;23.20;;;-0.90;99.90;;;;;;5096978;28;20111;-80
2023/01/26 01:37:14;;;;;;;25.63;23.52;;;-0.70;99.90;;;;;;5074257;28;20025;-80
2023/01/26 01:39:42;;;;;;;17.00;15.63;;;-0.60;99.90;;;;;;5090392;28;20027;-76
2023/01/26 01:42:08;;;;;;;24.67;22.98;;;-0.60;99.90;;;;;;5095472;28;20050;-79
2023/01/26 01:44:35;;;;;;;20.23;18.40;;;-0.60;99.90;;;;;;5102960;28;20470;-79
2023/01/26 01:47:13;;;;;;;16.60;14.98;;;-0.80;99.90;;;;;;5095455;28;20434;-80
2023/01/26 01:49:45;;;;;;;16.58;15.32;;;-0.90;99.90;;;;;;5102672;28;20107;-79
2023/01/26 01:52:18;;;;;;;17.45;16.05;;;-1.00;99.90;;;;;;5095188;28;20031;-80
2023/01/26 01:54:48;;;;;;;20.17;18.55;;;-1.00;99.90;;;;;;5098370;28;20024;-79
2023/01/26 01:57:27;;;;;;;25.38;23.27;;;-0.80;99.90;;;;;;5095914;28;20023;-80
2023/01/26 02:00:05;;;;;;;25.05;23.10;;;-0.60;99.90;;;;;;5093488;28;20091;-80
2023/01/26 02:02:31;;;;;;;26.30;24.65;;;-0.70;99.90;;;;;;5102327;28;20024;-80
2023/01/26 02:05:02;;;;;;;17.33;15.93;;;-0.70;99.90;;;;;;5091558;28;20084;-80
2023/01/26 02:07:31;;;;;;;19.92;18.58;;;-0.90;99.90;;;;;;5102032;28;20127;-80
2023/01/26 02:12:42;;;;;;;19.25;17.55;;;-1.10;99.90;;;;;;5101583;28;20116;-80
2023/01/26 02:15:08;;;;;;;20.45;19.10;;;-1.10;99.90;;;;;;5097072;28;20110;-80
2023/01/26 02:17:35;;;;;;;34.38;32.42;;;-0.90;99.90;;;;;;5092838;28;20024;-80
2023/01/26 02:20:31;;;;;;;31.42;28.73;;;-0.70;99.90;;;;;;5097030;28;20039;-79
2023/01/26 02:23:00;;;;;;;19.15;17.55;;;-0.60;99.90;;;;;;5089594;28;20065;-79
2023/01/26 02:25:43;;;;;;;39.65;37.45;;;-0.80;99.90;;;;;;5100309;28;20032;-79
2023/01/26 02:28:09;;;;;;;15.07;13.77;;;-0.90;99.90;;;;;;5088978;28;20024;-80
2023/01/26 02:30:35;;;;;;;15.23;14.23;;;-1.10;99.90;;;;;;5101724;28;20031;-79
2023/01/26 02:33:00;;;;;;;16.23;15.02;;;-1.20;99.90;;;;;;5076969;28;20310;-79
2023/01/26 02:35:26;;;;;;;23.42;21.85;;;-1.10;99.90;;;;;;5093573;28;20038;-79
2023/01/26 02:37:52;;;;;;;26.80;25.10;;;-0.80;99.90;;;;;;5093619;28;20032;-79
2023/01/26 02:40:45;;;;;;;19.58;18.42;;;-0.70;99.90;;;;;;5095953;28;20024;-79
2023/01/26 02:43:11;;;;;;;24.48;17.92;;;-0.70;99.90;;;;;;5102511;28;20031;-79
2023/01/26 02:45:39;;;;;;;18.25;16.95;;;-0.70;99.90;;;;;;5094121;28;20031;-79
2023/01/26 02:48:06;;;;;;;15.82;14.50;;;-0.60;99.90;;;;;;5094233;28;20154;-79
2023/01/26 02:50:34;;;;;;;20.33;17.15;;;-0.90;99.90;;;;;;5096405;28;20062;-79
2023/01/26 02:53:02;;;;;;;18.02;16.33;;;-1.10;99.90;;;;;;5100534;28;20032;-79
2023/01/26 02:55:28;;;;;;;16.13;14.65;;;-1.10;99.90;;;;;;5099403;28;20024;-79
2023/01/26 02:57:56;;;;;;;19.23;17.67;;;-1.20;99.90;;;;;;5098262;28;20081;-79
2023/01/26 03:00:27;;;;;;;24.13;22.52;;;-1.10;99.90;;;;;;5103458;28;20024;-79
2023/01/26 03:02:57;;;;;;;32.88;30.80;;;-1.00;99.90;;;;;;5093756;28;20052;-79
2023/01/26 03:05:23;;;;;;;22.97;16.53;;;-0.80;99.90;;;;;;5107039;28;20029;-79
2023/01/26 03:07:49;;;;;;;59.55;56.58;;;-0.90;99.90;;;;;;5077602;28;20028;-79
2023/01/26 03:10:16;;;;;;;47.13;44.55;;;-1.20;99.90;;;;;;5099534;28;20039;-80
2023/01/26 03:12:41;;;;;;;22.67;20.95;;;-1.20;99.90;;;;;;5083338;28;20051;-79
2023/01/26 03:29:00;;;;;;;17.02;15.50;;;-0.70;99.90;;;;;;5097869;28;20066;-78
2023/01/26 03:31:25;;;;;;;14.52;13.10;;;-0.80;99.90;;;;;;5077061;28;20056;-79
2023/01/26 03:33:51;;;;;;;13.80;12.63;;;-1.10;99.90;;;;;;5097826;28;20126;-78
2023/01/26 03:36:17;;;;;;;14.10;12.93;;;-1.20;99.90;;;;;;5099061;28;20032;-79
2023/01/26 03:38:42;;;;;;;16.70;15.30;;;-1.10;99.90;;;;;;5086007;28;20533;-80
2023/01/26 03:57:33;;;;;;;13.68;12.25;;;-1.00;99.90;;;;;;5105416;28;20038;-79
2023/01/26 03:59:59;;;;;;;13.85;12.65;;;-1.00;99.90;;;;;;5100624;28;20031;-79
2023/01/26 04:10:44;;;;;;;13.32;11.93;;;-0.70;99.90;;;;;;5099544;28;20081;-79
2023/01/26 04:21:33;;;;;;;13.85;12.45;;;-0.90;99.90;;;;;;5101786;28;20531;-79
2023/01/26 04:24:00;;;;;;;12.95;11.95;;;-1.00;99.90;;;;;;5093971;28;20370;-78
2023/01/26 04:26:35;;;;;;;14.20;12.80;;;-1.00;99.90;;;;;;5104820;28;20035;-79
2023/01/26 04:29:12;;;;;;;14.07;12.88;;;-0.80;99.90;;;;;;5090945;28;20024;-79
2023/01/26 04:31:39;;;;;;;12.95;11.90;;;-0.70;99.90;;;;;;5104163;28;20031;-79
2023/01/26 04:34:21;;;;;;;15.35;13.73;;;-0.80;99.90;;;;;;5086284;28;20533;-79
2023/01/26 04:36:46;;;;;;;14.48;12.82;;;-0.90;99.90;;;;;;5087828;28;20039;-79
2023/01/26 04:39:12;;;;;;;14.05;12.70;;;-1.00;99.90;;;;;;5096221;28;20496;-78
2023/01/26 04:41:38;;;;;;;13.80;12.50;;;-1.00;99.90;;;;;;5094626;28;20071;-79
2023/01/26 04:44:03;;;;;;;13.98;12.63;;;-1.10;99.90;;;;;;5099683;28;20027;-79
2023/01/26 04:46:29;;;;;;;16.27;14.55;;;-1.20;99.90;;;;;;5091486;28;20448;-78
2023/01/26 04:48:55;;;;;;;15.60;13.60;;;-1.20;99.90;;;;;;5102693;28;20031;-79
2023/01/26 04:51:21;;;;;;;15.80;14.35;;;-1.00;99.90;;;;;;5096143;28;20032;-78
2023/01/26 04:53:49;;;;;;;15.23;13.90;;;-0.90;99.90;;;;;;5096529;28;20076;-78
2023/01/26 04:56:28;;;;;;;15.65;13.68;;;-0.80;99.90;;;;;;5095440;28;20035;-78
2023/01/26 04:58:57;;;;;;;13.07;12.07;;;-0.80;99.90;;;;;;5090662;28;20032;-79
2023/01/26 05:01:23;;;;;;;15.80;13.52;;;-0.70;99.90;;;;;;5102224;28;20027;-79
2023/01/26 05:03:48;;;;;;;15.00;13.55;;;-0.70;99.90;;;;;;5072755;28;20028;-78
2023/01/26 05:06:14;;;;;;;14.70;12.75;;;-0.80;99.90;;;;;;5091472;28;20031;-78
2023/01/26 05:08:41;;;;;;;15.98;13.27;;;-0.80;99.90;;;;;;5096289;28;20519;-78
2023/01/26 05:11:07;;;;;;;14.00;12.85;;;-1.00;99.90;;;;;;5095542;28;20039;-78
2023/01/26 05:13:34;;;;;;;14.85;13.15;;;-0.90;99.90;;;;;;5096777;28;20028;-77
2023/01/26 05:16:01;;;;;;;15.35;13.90;;;-0.80;99.90;;;;;;5097104;28;20078;-79
2023/01/26 05:18:27;;;;;;;14.38;12.80;;;-0.70;99.90;;;;;;5098850;28;20079;-77
2023/01/26 05:20:54;;;;;;;14.45;13.07;;;-0.80;99.90;;;;;;5095153;28;20048;-77
2023/01/26 05:23:19;;;;;;;14.43;13.32;;;-0.70;99.90;;;;;;5097244;28;20032;-78
2023/01/26 05:25:45;;;;;;;16.95;13.45;;;-0.80;99.90;;;;;;5094879;28;20439;-77
2023/01/26 05:28:11;;;;;;;13.70;12.32;;;-0.80;99.90;;;;;;5080290;28;20031;-78
2023/01/26 05:30:36;;;;;;;14.07;12.68;;;-0.90;99.90;;;;;;5081159;28;20493;-77
2023/01/26 05:33:07;;;;;;;12.00;11.10;;;-0.90;99.90;;;;;;5092912;28;20044;-77
2023/01/26 05:35:34;;;;;;;11.48;10.57;;;-0.80;99.90;;;;;;5104660;28;20036;-78
2023/01/26 05:37:59;;;;;;;11.52;10.50;;;-0.80;99.90;;;;;;5097759;28;20046;-78
2023/01/26 05:40:27;;;;;;;12.35;10.25;;;-0.80;99.90;;;;;;5094522;28;20039;-78
2023/01/26 05:42:53;;;;;;;11.75;10.65;;;-0.80;99.90;;;;;;5077658;28;20492;-78
2023/01/26 05:45:19;;;;;;;10.63;9.70;;;-0.80;99.90;;;;;;5095807;28;20020;-78
2023/01/26 05:47:46;;;;;;;11.68;10.48;;;-0.80;99.90;;;;;;5094175;28;20028;-78
2023/01/26 05:50:12;;;;;;;10.00;9.05;;;-0.80;99.90;;;;;;5087517;28;20058;-78
2023/01/26 05:52:38;;;;;;;11.75;10.75;;;-0.80;99.90;;;;;;5083109;28;20058;-78
2023/01/26 05:55:06;;;;;;;12.38;11.27;;;-0.90;99.90;;;;;;5081547;28;20710;-78
2023/01/26 05:57:32;;;;;;;12.25;10.98;;;-0.90;99.90;;;;;;5077742;28;20044;-78
2023/01/26 05:59:57;;;;;;;12.23;11.13;;;-0.90;99.90;;;;;;5086526;28;20037;-77
2023/01/26 06:02:23;;;;;;;12.98;11.82;;;-0.90;99.90;;;;;;5081657;28;20056;-78
2023/01/26 06:04:49;;;;;;;11.98;11.10;;;-0.80;99.90;;;;;;5088491;28;20028;-78
2023/01/26 06:07:16;;;;;;;13.27;12.07;;;-0.70;99.90;;;;;;5119164;27;20051;-78
2023/01/26 06:09:42;;;;;;;11.63;10.43;;;-0.80;99.90;;;;;;5081414;28;20408;-78
2023/01/26 06:12:30;;;;;;;11.95;10.95;;;-1.00;99.90;;;;;;5073996;28;20114;-78
2023/01/26 06:14:56;;;;;;;10.75;9.85;;;-1.00;99.90;;;;;;5087592;28;20047;-77
2023/01/26 06:17:22;;;;;;;11.30;10.20;;;-0.90;99.90;;;;;;5073840;28;20028;-78
2023/01/26 06:19:48;;;;;;;12.18;11.18;;;-1.10;99.90;;;;;;5090604;28;20036;-78
2023/01/26 06:22:14;;;;;;;11.82;10.60;;;-1.20;99.90;;;;;;5083808;28;20785;-79
2023/01/26 06:24:40;;;;;;;12.25;11.05;;;-1.10;99.90;;;;;;5087060;28;20104;-73
2023/01/26 06:27:10;;;;;;;12.98;10.55;;;-1.20;99.90;;;;;;5103318;28;20036;-73
2023/01/26 06:29:36;;;;;;;12.60;11.50;;;-1.20;99.90;;;;;;5100854;28;20024;-72
2023/01/26 06:32:01;;;;;;;15.77;11.52;;;-1.20;99.90;;;;;;5089667;28;20543;-72
2023/01/26 06:34:27;;;;;;;14.55;13.35;;;-1.30;99.90;;;;;;5095774;28;20041;-72
2023/01/26 06:36:53;;;;;;;15.70;14.45;;;-1.40;99.90;;;;;;5090058;28;20027;-71
2023/01/26 06:39:19;;;;;;;13.57;12.38;;;-1.30;99.90;;;;;;5101913;28;20061;-72
2023/01/26 06:41:44;;;;;;;14.65;13.60;;;-1.20;99.90;;;;;;5063552;28;20028;-74
2023/01/26 06:44:10;;;;;;;13.57;12.20;;;-1.20;99.90;;;;;;5092776;28;20516;-74
2023/01/26 06:46:36;;;;;;;11.82;10.82;;;-1.20;99.90;;;;;;5089300;28;20127;-74
2023/01/26 06:49:03;;;;;;;11.82;10.43;;;-1.30;99.90;;;;;;5090905;28;20035;-73
2023/01/26 06:51:40;;;;;;;11.52;10.52;;;-1.20;99.90;;;;;;5086852;28;20047;-74
2023/01/26 06:54:09;;;;;;;11.48;10.20;;;-1.30;99.90;;;;;;5091118;28;20037;-74
2023/01/26 06:56:35;;;;;;;10.90;9.80;;;-1.30;99.90;;;;;;5103128;28;20392;-71
2023/01/26 06:59:01;;;;;;;12.98;9.68;;;-1.30;99.90;;;;;;5095577;28;20038;-78
2023/01/26 07:01:30;;;;;;;12.13;10.93;;;-1.30;99.90;;;;;;5103488;28;20497;-79
2023/01/26 07:03:56;;;;;;;11.02;9.95;;;-1.30;99.90;;;;;;5079809;28;20127;-81
2023/01/26 07:06:22;;;;;;;10.20;9.32;;;-1.10;99.90;;;;;;5079811;28;20118;-79
2023/01/26 07:08:47;;;;;;;11.60;10.20;;;-1.00;99.90;;;;;;5102295;28;20120;-80
2023/01/26 07:11:14;;;;;;;10.43;9.57;;;-1.00;99.90;;;;;;5098905;28;20825;-81
2023/01/26 07:13:40;;;;;;;10.57;9.50;;;-0.90;99.90;;;;;;5099573;28;20492;-80
2023/01/26 07:16:09;;;;;;;10.57;9.68;;;-0.90;99.90;;;;;;5098284;28;20032;-80
2023/01/26 07:18:36;;;;;;;11.45;10.40;;;-0.80;99.90;;;;;;5088134;28;20090;-80
2023/01/26 07:21:08;;;;;;;10.10;9.07;;;-0.80;99.90;;;;;;5085820;28;20036;-80
2023/01/26 07:23:34;;;;;;;10.25;9.15;;;-0.90;99.90;;;;;;5089041;28;20032;-80
2023/01/26 07:25:59;;;;;;;8.40;7.72;;;-1.10;99.90;;;;;;5087724;28;20449;-80
2023/01/26 07:28:26;;;;;;;10.07;9.18;;;-1.20;99.90;;;;;;5065940;28;20401;-81
2023/01/26 07:30:52;;;;;;;12.27;11.10;;;-1.20;99.90;;;;;;5062073;28;20040;-81
2023/01/26 07:33:18;;;;;;;10.25;9.38;;;-1.00;99.90;;;;;;5091252;28;20020;-80
2023/01/26 07:35:44;;;;;;;9.93;8.98;;;-1.10;99.90;;;;;;5085335;28;20606;-81
2023/01/26 07:38:09;;;;;;;9.32;8.48;;;-1.00;99.90;;;;;;5068610;28;20041;-80
2023/01/26 07:40:35;;;;;;;10.43;9.52;;;-0.80;99.90;;;;;;5084744;28;20047;-80
2023/01/26 07:43:01;;;;;;;11.20;10.20;;;-0.70;99.90;;;;;;5081766;28;20177;-80
2023/01/26 07:45:27;;;;;;;12.88;11.25;;;-0.70;99.90;;;;;;5085960;28;20077;-80
2023/01/26 07:47:56;;;;;;;12.65;11.55;;;-0.70;99.90;;;;;;5089870;28;20044;-81
2023/01/26 07:50:24;;;;;;;11.93;10.68;;;-0.80;99.90;;;;;;5088637;28;20016;-81
2023/01/26 07:52:51;;;;;;;10.80;9.80;;;-0.90;99.90;;;;;;5081729;28;20027;-80
2023/01/26 07:55:24;;;;;;;10.43;9.43;;;-0.90;99.90;;;;;;5089687;28;20032;-80
2023/01/26 07:57:50;;;;;;;10.40;9.50;;;-1.00;99.90;;;;;;5086027;28;20033;-80
2023/01/26 08:00:17;;;;;;;12.30;10.40;;;-0.80;99.90;;;;;;5092579;28;20032;-80
2023/01/26 08:02:43;;;;;;;11.38;10.27;;;-0.70;99.90;;;;;;5092199;28;20043;-80
2023/01/26 08:05:09;;;;;;;11.00;10.00;;;-0.70;99.90;;;;;;5065648;28;20036;-79
2023/01/26 08:07:35;;;;;;;11.32;10.25;;;-0.50;99.90;;;;;;5087066;28;20043;-80
2023/01/26 08:10:01;;;;;;;11.02;10.07;;;-0.50;99.90;;;;;;5078919;28;20024;-80
2023/01/26 08:12:26;;;;;;;9.27;8.55;;;-0.40;99.90;;;;;;5058023;28;20052;-80
2023/01/26 08:14:52;;;;;;;10.85;9.73;;;-0.50;99.90;;;;;;5084131;28;20021;-81
2023/01/26 08:17:18;;;;;;;12.70;8.60;;;-0.50;99.90;;;;;;5068805;28;20028;-80
2023/01/26 08:19:45;;;;;;;8.66;8.00;;;-0.70;99.90;;;;;;5081380;28;1413482;-80
2023/01/26 08:22:11;;;;;;;7.95;7.32;;;-0.60;99.90;;;;;;5091061;28;20100;-80
2023/01/26 08:24:37;;;;;;;9.32;8.63;;;-0.70;99.90;;;;;;5094129;28;20031;-78
2023/01/26 08:27:03;;;;;;;8.00;7.03;;;-0.60;99.90;;;;;;5084692;28;20028;-79
2023/01/26 08:29:29;;;;;;;9.18;8.38;;;-0.70;99.90;;;;;;5094622;28;20512;-78
2023/01/26 08:31:55;;;;;;;9.57;7.40;;;-0.50;99.90;;;;;;5093681;28;20029;-78
2023/01/26 08:34:21;;;;;;;13.55;7.05;;;-0.60;99.90;;;;;;5097332;28;20519;-78
2023/01/26 08:36:47;;;;;;;13.32;7.03;;;-0.60;99.90;;;;;;5076265;28;20171;-78
2023/01/26 08:39:13;;;;;;;9.88;8.25;;;-0.70;99.90;;;;;;5073463;28;20044;-81
2023/01/26 08:41:38;;;;;;;8.68;7.82;;;-0.70;99.90;;;;;;5094369;28;20576;-81
2023/01/26 08:44:05;;;;;;;9.63;7.45;;;-0.60;99.90;;;;;;5081587;28;20082;-81
2023/01/26 08:46:31;;;;;;;8.75;7.93;;;-0.50;99.90;;;;;;5078985;28;20379;-81
2023/01/26 08:48:56;;;;;;;8.77;7.65;;;-0.50;99.90;;;;;;5084212;28;20058;-80
2023/01/26 08:51:22;;;;;;;8.25;7.55;;;-0.50;99.90;;;;;;5079866;28;20036;-82
2023/01/26 08:53:47;;;;;;;10.35;8.52;;;-0.50;99.90;;;;;;5095956;28;20481;-82
2023/01/26 08:56:13;;;;;;;9.57;8.77;;;-0.60;99.90;;;;;;5064069;28;20593;-79
2023/01/26 08:58:39;;;;;;;8.27;7.45;;;-0.50;99.90;;;;;;5086856;28;20711;-81
2023/01/26 09:01:06;;;;;;;8.25;7.53;;;-0.30;99.90;;;;;;5093169;28;20525;-79
2023/01/26 09:03:32;;;;;;;7.80;6.60;;;-0.30;99.90;;;;;;5094090;28;20020;-79
2023/01/26 09:06:03;;;;;;;8.65;6.72;;;-0.20;99.90;;;;;;5093445;28;20082;-79
2023/01/26 09:08:29;;;;;;;6.50;5.85;;;-0.30;99.90;;;;;;5088698;28;20178;-78
2023/01/26 09:10:54;;;;;;;6.72;5.53;;;-0.30;99.90;;;;;;5091219;28;20110;-78
2023/01/26 09:13:20;;;;;;;7.13;5.95;;;-0.40;99.90;;;;;;5087878;28;20501;-78
2023/01/26 09:15:46;;;;;;;14.70;5.90;;;-0.40;99.90;;;;;;5105482;28;20024;-78
2023/01/26 09:18:11;;;;;;;9.18;5.55;;;-0.20;99.90;;;;;;5091569;28;20130;-81
2023/01/26 09:20:37;;;;;;;7.35;6.00;;;-0.30;99.90;;;;;;5064765;28;20101;-79
2023/01/26 09:23:03;;;;;;;6.70;5.00;;;-0.20;99.90;;;;;;5085359;28;20062;-78
2023/01/26 09:25:29;;;;;;;6.78;6.05;;;-0.30;99.90;;;;;;5086863;28;20493;-78
2023/01/26 09:27:55;;;;;;;6.07;5.47;;;-0.30;99.90;;;;;;5076545;28;20040;-79
2023/01/26 09:30:23;;;;;;;8.93;5.60;;;-0.20;99.90;;;;;;5084376;28;20169;-78
2023/01/26 09:32:49;;;;;;;6.10;5.50;;;-0.20;99.90;;;;;;5075174;28;20043;-79
2023/01/26 09:35:15;;;;;;;8.07;5.85;;;0.10;99.90;;;;;;5076492;28;20142;-78
2023/01/26 09:37:44;;;;;;;6.15;5.60;;;0.00;99.90;;;;;;5089273;28;20197;-78
2023/01/26 09:40:30;;;;;;;5.90;5.28;;;-0.30;99.90;;;;;;5065628;28;20052;-78
2023/01/26 09:43:15;;;;;;;6.20;5.35;;;0.00;99.90;;;;;;5086576;28;20425;-79
2023/01/26 09:46:12;;;;;;;6.00;4.95;;;-0.10;99.90;;;;;;5096857;28;20028;-79
2023/01/26 09:48:53;;;;;;;7.43;5.85;;;-0.10;99.90;;;;;;5058476;28;20052;-78
2023/01/26 09:51:28;;;;;;;5.80;4.70;;;0.00;99.30;;;;;;5084848;28;20134;-78
2023/01/26 09:54:35;;;;;;;7.05;5.15;;;0.10;98.50;;;;;;5087227;28;20042;-79
2023/01/26 09:57:09;;;;;;;5.45;4.68;;;0.00;98.60;;;;;;5095030;28;20059;-79
2023/01/26 09:59:41;;;;;;;6.15;5.53;;;0.20;99.40;;;;;;5085458;28;20098;-78
2023/01/26 10:02:30;;;;;;;9.10;5.47;;;0.20;99.30;;;;;;5088734;28;20116;-78
2023/01/26 10:05:35;;;;;;;5.82;4.97;;;0.20;99.20;;;;;;5085108;28;20394;-79
2023/01/26 10:08:01;;;;;;;4.35;3.33;;;0.20;98.30;;;;;;5027110;28;20048;-78
2023/01/26 10:10:33;;;;;;;7.18;5.07;;;0.20;97.20;;;;;;5077737;28;20142;-79
2023/01/26 10:12:59;;;;;;;5.88;4.72;;;0.30;98.10;;;;;;5084459;28;20028;-79
2023/01/26 10:15:38;;;;;;;5.68;5.07;;;0.50;98.10;;;;;;5081098;28;20044;-78
2023/01/26 10:18:08;;;;;;;5.28;4.65;;;0.50;99.40;;;;;;5091338;28;20037;-79
2023/01/26 10:20:42;;;;;;;6.07;4.30;;;0.60;98.70;;;;;;5077926;28;20056;-78
2023/01/26 10:23:18;;;;;;;5.43;4.53;;;0.40;98.30;;;;;;5082037;28;20049;-78
2023/01/26 10:25:45;;;;;;;5.43;4.57;;;0.30;97.10;;;;;;5084926;28;20032;-78
2023/01/26 10:28:28;;;;;;;7.00;4.07;;;0.30;97.80;;;;;;5087081;28;20044;-79
2023/01/26 10:30:53;;;;;;;8.50;4.20;;;0.30;98.10;;;;;;5086570;28;20034;-79
2023/01/26 10:33:25;;;;;;;4.00;3.65;;;0.40;97.30;;;;;;5086456;28;20032;-79
2023/01/26 10:35:51;;;;;;;5.63;4.45;;;0.30;96.00;;;;;;5099068;28;20099;-79
2023/01/26 10:38:32;;;;;;;4.75;4.22;;;0.30;97.60;;;;;;5072835;28;20038;-79
2023/01/26 10:41:02;;;;;;;;;;;0.40;97.40;;;;;;5080318;28;20115;-79
2023/01/26 10:43:28;;;;;;;6.00;4.40;;;0.30;95.60;;;;;;5081864;28;20358;-78
2023/01/26 10:45:54;;;;;;;5.78;3.92;;;0.30;97.00;;;;;;5065629;28;20040;-72
2023/01/26 10:48:25;;;;;;;6.03;4.72;;;0.30;94.30;;;;;;5078530;28;20043;-74
2023/01/26 10:50:52;;;;;;;7.25;5.28;;;0.40;95.80;;;;;;5077871;28;20446;-73
2023/01/26 10:53:29;;;;;;;6.35;5.22;;;0.50;97.10;;;;;;5082325;28;20046;-74
2023/01/26 10:56:04;;;;;;;7.85;5.10;;;0.50;97.00;;;;;;5086428;28;20036;-74
2023/01/26 10:58:47;;;;;;;5.03;4.13;;;0.50;96.30;;;;;;5078494;28;20748;-73
2023/01/26 11:01:17;;;;;;;6.32;4.40;;;0.50;96.20;;;;;;5091839;28;20114;-73
2023/01/26 11:03:58;;;;;;;5.38;4.38;;;0.50;96.40;;;;;;5083626;28;20071;-73
2023/01/26 11:06:28;;;;;;;8.68;4.28;;;0.40;95.80;;;;;;5079657;28;20107;-73
2023/01/26 11:08:53;;;;;;;6.03;5.07;;;0.40;96.70;;;;;;5079795;28;20129;-73
2023/01/26 11:11:28;;;;;;;6.90;5.05;;;0.30;96.80;;;;;;5081458;28;20107;-74
2023/01/26 11:14:16;;;;;;;6.32;4.72;;;0.40;97.00;;;;;;5100102;28;20043;-73
2023/01/26 11:17:20;;;;;;;5.70;4.78;;;0.30;96.90;;;;;;5090022;28;20024;-74
2023/01/26 11:19:55;;;;;;;6.95;4.95;;;0.20;95.80;;;;;;5010341;28;20040;-73
2023/01/26 11:22:42;;;;;;;6.70;5.20;;;0.10;97.30;;;;;;5085815;28;20040;-74
2023/01/26 11:25:25;;;;;;;6.78;4.40;;;0.00;96.40;;;;;;5088718;28;20020;-74
2023/01/26 11:28:22;;;;;;;5.13;4.72;;;0.10;94.80;;;;;;5082184;28;20032;-73
2023/01/26 11:30:53;;;;;;;5.05;4.65;;;-0.10;95.60;;;;;;5087455;28;20089;-76
2023/01/26 11:33:34;;;;;;;7.65;5.50;;;-0.10;96.30;;;;;;5077867;28;20029;-75
2023/01/26 11:36:14;;;;;;;6.13;5.45;;;-0.10;97.00;;;;;;5097530;28;20468;-75
2023/01/26 11:38:42;;;;;;;6.70;5.40;;;-0.20;97.40;;;;;;5089896;28;20023;-76
2023/01/26 11:41:39;;;;;;;7.28;6.00;;;-0.20;97.30;;;;;;5089020;28;20035;-76
2023/01/26 11:44:27;;;;;;;6.07;5.15;;;-0.10;96.50;;;;;;5117797;27;20043;-73
2023/01/26 11:47:17;;;;;;;6.10;5.28;;;-0.10;96.30;;;;;;5094494;28;20081;-77
2023/01/26 11:49:56;;;;;;;8.80;6.32;;;0.00;97.40;;;;;;5083636;28;20673;-77
2023/01/26 11:52:22;;;;;;;5.07;4.63;;;-0.10;96.80;;;;;;5081680;28;20390;-77
2023/01/26 11:55:05;;;;;;;8.15;5.45;;;-0.10;95.60;;;;;;5088438;28;20028;-78
2023/01/26 11:57:50;;;;;;;9.43;6.63;;;-0.30;97.00;;;;;;5090121;28;20020;-77
2023/01/26 12:00:22;;;;;;;7.60;6.10;;;-0.30;97.30;;;;;;5084070;28;20509;-73
2023/01/26 12:02:58;;;;;;;6.93;6.15;;;-0.10;97.30;;;;;;5089685;28;20028;-74
2023/01/26 12:05:28;;;;;;;6.32;5.72;;;-0.10;97.50;;;;;;5085289;28;20029;-75
2023/01/26 12:08:16;;;;;;;7.33;6.00;;;0.00;96.60;;;;;;5085433;28;20371;-75
2023/01/26 12:11:22;;;;;;;5.80;5.20;;;0.00;96.50;;;;;;5088800;28;20036;-75
2023/01/26 12:14:19;;;;;;;6.82;5.68;;;-0.10;96.60;;;;;;5087483;28;20078;-75
2023/01/26 12:17:00;;;;;;;7.55;5.45;;;-0.20;95.80;;;;;;5064811;28;20064;-75
2023/01/26 12:19:42;;;;;;;4.28;3.88;;;-0.20;97.50;;;;;;5082791;28;20028;-75
2023/01/26 12:22:27;;;;;;;9.40;5.18;;;-0.10;95.30;;;;;;5083541;28;20098;-75
2023/01/26 12:25:14;;;;;;;7.03;5.85;;;-0.10;95.60;;;;;;5087457;28;20149;-76
2023/01/26 12:27:45;;;;;;;7.32;6.32;;;0.00;95.70;;;;;;5083382;28;20043;-73
2023/01/26 12:30:41;;;;;;;6.28;5.38;;;0.00;96.40;;;;;;5084057;28;20492;-81
2023/01/26 12:33:09;;;;;;;8.00;5.63;;;-0.20;95.50;;;;;;5088103;28;20035;-82
2023/01/26 12:35:44;;;;;;;8.02;5.63;;;-0.20;96.20;;;;;;5118772;27;20072;-82
2023/01/26 12:38:09;;;;;;;5.57;4.95;;;-0.20;97.20;;;;;;5097837;28;20085;-83
2023/01/26 12:40:47;;;;;;;7.72;6.15;;;-0.20;96.90;;;;;;5084032;28;20027;-82
2023/01/26 12:43:32;;;;;;;13.93;7.63;;;-0.20;96.60;;;;;;5087112;28;20047;-82
2023/01/26 12:46:00;;;;;;;9.40;6.40;;;-0.20;97.50;;;;;;5099570;28;20044;-82
2023/01/26 12:48:54;;;;;;;9.10;8.23;;;-0.20;96.90;;;;;;5093105;28;20035;-82
2023/01/26 12:51:26;;;;;;;6.90;6.20;;;-0.30;97.90;;;;;;5095242;28;20024;-79
2023/01/26 12:54:10;;;;;;;7.15;5.88;;;-0.40;97.60;;;;;;5090768;28;20067;-76
2023/01/26 12:56:43;;;;;;;7.20;6.30;;;-0.20;97.30;;;;;;5099969;28;20020;-78
2023/01/26 12:59:35;;;;;;;6.50;5.82;;;-0.20;96.60;;;;;;5090311;28;20043;-75
2023/01/26 13:02:10;;;;;;;7.55;5.05;;;-0.20;97.30;;;;;;5089981;28;20044;-78
2023/01/26 13:04:38;;;;;;;5.90;5.25;;;-0.30;96.70;;;;;;5096575;28;20513;-77
2023/01/26 13:07:29;;;;;;;6.18;4.95;;;-0.30;96.10;;;;;;5092541;28;20481;-79
2023/01/26 13:10:13;;;;;;;7.30;6.15;;;-0.20;96.50;;;;;;5098759;28;20045;-79
2023/01/26 13:13:19;;;;;;;7.85;6.72;;;0.00;95.30;;;;;;5099000;28;20031;-79
2023/01/26 13:15:45;;;;;;;6.15;5.60;;;-0.10;95.50;;;;;;5093751;28;20024;-79
2023/01/26 13:18:17;;;;;;;6.45;5.85;;;-0.10;95.90;;;;;;5102697;28;20035;-79
2023/01/26 13:20:44;;;;;;;5.28;4.72;;;0.00;94.90;;;;;;5097906;28;20052;-80
2023/01/26 13:23:44;;;;;;;5.82;4.90;;;-0.10;95.30;;;;;;5088612;28;20028;-80
2023/01/26 13:26:30;;;;;;;6.20;5.07;;;-0.20;94.40;;;;;;5096325;28;20203;-76
2023/01/26 13:29:30;;;;;;;8.77;5.57;;;-0.20;95.20;;;;;;5093041;28;20453;-77
2023/01/26 13:32:18;;;;;;;5.80;4.53;;;-0.10;95.30;;;;;;5095972;28;20031;-77
2023/01/26 13:34:58;;;;;;;7.32;5.50;;;0.00;95.50;;;;;;5084212;28;20063;-77
2023/01/26 13:37:42;;;;;;;5.50;5.00;;;0.10;95.00;;;;;;5095847;28;20528;-77
2023/01/26 13:40:21;;;;;;;6.75;5.60;;;0.10;95.20;;;;;;5085363;28;20036;-76
2023/01/26 13:43:18;;;;;;;5.30;4.80;;;0.10;95.30;;;;;;5097989;28;20023;-76
2023/01/26 13:45:56;;;;;;;10.32;6.18;;;-0.10;95.00;;;;;;5081262;28;20023;-77
2023/01/26 13:48:38;;;;;;;7.47;5.35;;;0.00;95.30;;;;;;5079747;28;20028;-77